Time;durP1;ratioP1;P1;durP2;ratioP2;P2;SDS_P1;SDS_P2;PMS_P1;PMS_P2;Temp;Humidity;BMP_temperature;BMP_pressure;BME280_temperature;BME280_humidity;BME280_pressure;Samples;Min_cycle;Max_cycle;Signal;HPM_P1;HPM_P2
2021/03/29 00:00:21;;;;;;;9.07;4.70;;;7.00;99.90;;;;;;5049105;28;20665;-88
2021/03/29 00:02:49;;;;;;;8.60;4.10;;;7.10;99.90;;;;;;5049746;28;20625;-88
2021/03/29 00:05:16;;;;;;;6.03;4.73;;;7.10;99.90;;;;;;5049898;28;20682;-88
2021/03/29 00:07:46;;;;;;;6.33;4.87;;;7.00;99.90;;;;;;5048990;28;20626;-87
2021/03/29 00:10:14;;;;;;;8.20;6.00;;;7.00;99.90;;;;;;5050028;28;20768;-87
2021/03/29 00:12:43;;;;;;;9.50;5.00;;;6.90;99.90;;;;;;5051998;28;20629;-87
2021/03/29 00:15:16;;;;;;;8.70;5.47;;;6.90;99.90;;;;;;5048445;28;20633;-87
2021/03/29 00:17:44;;;;;;;6.87;4.17;;;6.80;99.90;;;;;;5051751;28;20622;-88
2021/03/29 00:20:13;;;;;;;8.80;4.47;;;6.80;99.90;;;;;;5050735;28;20876;-87
2021/03/29 00:22:40;;;;;;;6.47;4.70;;;6.90;99.90;;;;;;5051848;28;20606;-88
2021/03/29 00:25:08;;;;;;;6.57;4.63;;;6.80;99.90;;;;;;5047330;28;20637;-88
2021/03/29 00:27:35;;;;;;;5.00;4.43;;;6.80;99.90;;;;;;5049373;28;20630;-88
2021/03/29 00:30:02;;;;;;;4.63;3.80;;;6.80;99.90;;;;;;5051200;28;20728;-88
2021/03/29 00:32:29;;;;;;;8.03;4.90;;;6.80;99.90;;;;;;5052607;28;20948;-88
2021/03/29 00:34:56;;;;;;;7.37;4.27;;;6.80;99.90;;;;;;5050668;28;20732;-89
2021/03/29 00:37:24;;;;;;;5.60;4.40;;;6.70;99.90;;;;;;5049125;28;21152;-88
2021/03/29 00:39:51;;;;;;;8.33;4.43;;;6.80;99.90;;;;;;5046058;28;20662;-87
2021/03/29 00:42:18;;;;;;;5.37;4.87;;;6.80;99.90;;;;;;5047542;28;20637;-88
2021/03/29 00:44:45;;;;;;;6.83;4.53;;;6.80;99.90;;;;;;5050806;28;20876;-88
2021/03/29 00:47:12;;;;;;;5.67;4.33;;;6.70;99.90;;;;;;5056172;28;20648;-88
2021/03/29 00:49:40;;;;;;;7.40;4.50;;;6.70;99.90;;;;;;5053122;28;20743;-89
2021/03/29 00:52:08;;;;;;;6.87;4.40;;;6.70;99.90;;;;;;5051752;28;20641;-88
2021/03/29 00:54:36;;;;;;;6.37;4.40;;;6.70;99.90;;;;;;5049313;28;20652;-88
2021/03/29 00:57:03;;;;;;;7.60;4.80;;;6.60;99.90;;;;;;5048404;28;20725;-87
2021/03/29 00:59:32;;;;;;;11.00;4.63;;;6.60;99.90;;;;;;5045080;28;20621;-87
2021/03/29 01:01:58;;;;;;;6.70;4.80;;;6.60;99.90;;;;;;5051838;28;20640;-87
2021/03/29 01:04:25;;;;;;;4.37;3.83;;;6.60;99.90;;;;;;5047542;28;20629;-88
2021/03/29 01:06:54;;;;;;;5.43;4.43;;;6.50;99.90;;;;;;5053893;28;20641;-86
2021/03/29 01:09:24;;;;;;;7.97;4.80;;;6.50;99.90;;;;;;5049350;28;20666;-86
2021/03/29 01:11:54;;;;;;;7.47;4.10;;;6.40;99.90;;;;;;5052658;28;20644;-87
2021/03/29 01:14:27;;;;;;;7.50;4.23;;;6.40;99.90;;;;;;5050044;28;20622;-90
2021/03/29 01:16:58;;;;;;;9.50;4.10;;;6.40;99.90;;;;;;5045761;28;20649;-88
2021/03/29 01:19:47;;;;;;;9.00;4.70;;;6.40;99.90;;;;;;5055230;28;20657;-87
2021/03/29 01:22:17;;;;;;;7.50;4.43;;;6.40;99.90;;;;;;5049401;28;20951;-88
2021/03/29 01:24:51;;;;;;;5.83;4.23;;;6.30;99.90;;;;;;5050056;28;20637;-87
2021/03/29 01:27:22;;;;;;;6.87;4.60;;;6.40;99.90;;;;;;5051673;28;20629;-87
2021/03/29 01:29:52;;;;;;;5.23;4.00;;;6.30;99.90;;;;;;5072748;28;20669;-88
2021/03/29 01:32:22;;;;;;;7.73;4.60;;;6.30;99.90;;;;;;5076378;28;20612;-88
2021/03/29 01:34:49;;;;;;;6.33;5.13;;;6.30;99.90;;;;;;5049342;28;20671;-88
2021/03/29 01:37:17;;;;;;;7.30;3.87;;;6.20;99.90;;;;;;5049744;28;20634;-88
2021/03/29 01:39:45;;;;;;;7.30;4.70;;;6.20;99.90;;;;;;5047375;28;20656;-88
2021/03/29 01:42:12;;;;;;;7.77;4.80;;;6.20;99.90;;;;;;5049250;28;20665;-88
2021/03/29 01:44:42;;;;;;;8.80;5.40;;;6.10;99.90;;;;;;5047855;28;20602;-90
2021/03/29 01:47:09;;;;;;;8.07;4.17;;;6.00;99.90;;;;;;5047640;28;20695;-87
2021/03/29 01:49:36;;;;;;;7.20;4.40;;;6.00;99.90;;;;;;5045733;28;20677;-87
2021/03/29 01:52:04;;;;;;;7.43;4.50;;;5.90;99.90;;;;;;5044262;28;20695;-88
2021/03/29 01:54:33;;;;;;;5.83;4.60;;;5.90;99.90;;;;;;5049702;28;20644;-87
2021/03/29 01:57:00;;;;;;;5.47;4.17;;;6.00;99.90;;;;;;5048148;28;20714;-87
2021/03/29 01:59:26;;;;;;;7.23;4.27;;;5.90;99.90;;;;;;5046099;28;20618;-87
2021/03/29 02:01:55;;;;;;;8.57;5.17;;;5.80;99.90;;;;;;5049620;28;20631;-88
2021/03/29 02:04:21;;;;;;;6.27;4.47;;;5.70;99.90;;;;;;5049978;28;20687;-87
2021/03/29 02:06:48;;;;;;;5.90;4.27;;;5.70;99.90;;;;;;5056564;28;20625;-88
2021/03/29 02:09:14;;;;;;;9.10;5.10;;;5.70;99.90;;;;;;5048884;28;20650;-88
2021/03/29 02:11:41;;;;;;;5.47;4.13;;;5.70;99.90;;;;;;5043410;28;20630;-88
2021/03/29 02:14:09;;;;;;;6.13;5.10;;;5.70;99.90;;;;;;5046545;28;21085;-87
2021/03/29 02:16:36;;;;;;;10.33;5.10;;;5.60;99.90;;;;;;5045843;28;20636;-88
2021/03/29 02:19:06;;;;;;;6.17;4.60;;;5.50;99.90;;;;;;5041695;28;21169;-87
2021/03/29 02:21:35;;;;;;;8.20;4.60;;;5.50;99.90;;;;;;5044301;28;21248;-87
2021/03/29 02:24:03;;;;;;;6.10;4.50;;;5.50;99.90;;;;;;5048235;28;20612;-87
2021/03/29 02:26:31;;;;;;;6.23;4.03;;;5.40;99.90;;;;;;5050473;28;20642;-87
2021/03/29 02:28:59;;;;;;;8.83;4.67;;;5.30;99.90;;;;;;5052271;28;21027;-87
2021/03/29 02:31:27;;;;;;;6.13;4.43;;;5.30;99.90;;;;;;5047586;28;20660;-88
2021/03/29 02:33:56;;;;;;;5.73;4.63;;;5.30;99.90;;;;;;5048303;28;21013;-88
2021/03/29 02:36:23;;;;;;;6.73;4.50;;;5.30;99.90;;;;;;5048393;28;20618;-87
2021/03/29 02:38:50;;;;;;;9.97;4.60;;;5.20;99.90;;;;;;5050084;28;20660;-87
2021/03/29 02:41:17;;;;;;;6.90;5.00;;;5.30;99.90;;;;;;5050141;28;20699;-88
2021/03/29 02:43:47;;;;;;;5.90;4.57;;;5.30;99.90;;;;;;5048086;28;20625;-88
2021/03/29 02:46:14;;;;;;;7.50;4.43;;;5.30;99.90;;;;;;5050397;28;20622;-87
2021/03/29 02:48:44;;;;;;;6.60;4.60;;;5.30;99.90;;;;;;5052726;28;20625;-89
2021/03/29 02:51:13;;;;;;;7.03;5.00;;;5.20;99.90;;;;;;5051552;28;20645;-87
2021/03/29 02:53:46;;;;;;;5.57;4.60;;;5.20;99.90;;;;;;5048365;28;20632;-88
2021/03/29 02:56:17;;;;;;;7.53;4.70;;;5.20;99.90;;;;;;5050610;28;21320;-87
2021/03/29 02:58:48;;;;;;;7.73;4.83;;;5.20;99.90;;;;;;5051244;28;20630;-88
2021/03/29 03:01:15;;;;;;;8.33;5.30;;;5.10;99.90;;;;;;5049949;28;20659;-88
2021/03/29 03:03:44;;;;;;;6.77;4.90;;;5.10;99.90;;;;;;5050059;28;20627;-88
2021/03/29 03:06:11;;;;;;;7.50;4.50;;;5.00;99.90;;;;;;5052007;28;20728;-87
2021/03/29 03:08:38;;;;;;;9.37;4.47;;;5.00;99.90;;;;;;5051199;28;20625;-87
2021/03/29 03:11:09;;;;;;;13.37;5.83;;;5.10;99.90;;;;;;5049416;28;20689;-87
2021/03/29 03:13:36;;;;;;;7.67;4.67;;;4.90;99.90;;;;;;5048817;28;20630;-88
2021/03/29 03:16:05;;;;;;;5.53;4.93;;;4.90;99.90;;;;;;5048928;28;21160;-88
2021/03/29 03:18:31;;;;;;;8.53;5.73;;;4.90;99.90;;;;;;5051677;28;20992;-88
2021/03/29 03:20:58;;;;;;;6.77;5.10;;;4.90;99.90;;;;;;5053891;28;20994;-88
2021/03/29 03:23:24;;;;;;;8.60;4.50;;;5.00;99.90;;;;;;5053192;28;20661;-88
2021/03/29 03:25:52;;;;;;;7.97;5.50;;;4.90;99.90;;;;;;5051522;28;21173;-88
2021/03/29 03:28:21;;;;;;;8.53;5.30;;;4.80;99.90;;;;;;5046637;28;20721;-88
2021/03/29 03:30:50;;;;;;;6.77;6.07;;;4.80;99.90;;;;;;5049029;28;21092;-88
2021/03/29 03:33:19;;;;;;;9.77;7.50;;;4.70;99.90;;;;;;5047693;28;20630;-88
2021/03/29 03:35:46;;;;;;;14.73;8.20;;;4.80;99.90;;;;;;5045801;28;20652;-89
2021/03/29 03:38:17;;;;;;;10.30;9.20;;;4.70;99.90;;;;;;5045516;28;20622;-88
2021/03/29 03:40:45;;;;;;;9.53;8.57;;;4.70;99.90;;;;;;5046564;28;20700;-89
2021/03/29 03:43:16;;;;;;;10.93;7.93;;;4.70;99.90;;;;;;5049317;28;20659;-88
2021/03/29 03:45:48;;;;;;;14.97;9.13;;;4.70;99.90;;;;;;5051901;28;20693;-87
2021/03/29 03:48:17;;;;;;;12.13;9.20;;;4.80;99.90;;;;;;5062647;28;21176;-87
2021/03/29 03:50:46;;;;;;;10.10;8.40;;;4.70;99.90;;;;;;5071905;28;20680;-88
2021/03/29 03:53:15;;;;;;;10.33;6.80;;;4.60;99.90;;;;;;5061079;28;20629;-88
2021/03/29 03:55:42;;;;;;;9.03;6.83;;;4.60;99.90;;;;;;5052305;28;20622;-88
2021/03/29 03:58:10;;;;;;;9.30;6.73;;;4.60;99.90;;;;;;5051396;28;20618;-88
2021/03/29 04:00:37;;;;;;;9.07;5.77;;;4.50;99.90;;;;;;5068439;28;20683;-88
2021/03/29 04:03:05;;;;;;;8.17;5.37;;;4.60;99.90;;;;;;5064694;28;21092;-89
2021/03/29 04:05:33;;;;;;;8.80;5.07;;;4.50;99.90;;;;;;5048729;28;20638;-88
2021/03/29 04:07:59;;;;;;;9.60;5.40;;;4.50;99.90;;;;;;5046193;28;20737;-87
2021/03/29 04:10:36;;;;;;;6.10;5.10;;;4.40;99.90;;;;;;5050481;28;21082;-88
2021/03/29 04:13:06;;;;;;;7.47;5.10;;;4.50;99.90;;;;;;5044172;28;20882;-88
2021/03/29 04:15:34;;;;;;;6.80;5.20;;;4.40;99.90;;;;;;5048660;28;20614;-87
2021/03/29 04:18:02;;;;;;;8.87;4.80;;;4.40;99.90;;;;;;5046211;28;20626;-87
2021/03/29 04:20:33;;;;;;;5.50;5.00;;;4.40;99.90;;;;;;5043196;28;20645;-90
2021/03/29 04:22:59;;;;;;;6.30;5.10;;;4.40;99.90;;;;;;5045854;28;20625;-87
2021/03/29 04:25:25;;;;;;;5.83;4.40;;;4.50;99.90;;;;;;5045804;28;20648;-88
2021/03/29 04:27:52;;;;;;;8.53;4.80;;;4.50;99.90;;;;;;5044896;28;20636;-87
2021/03/29 04:30:19;;;;;;;8.23;4.73;;;4.50;99.90;;;;;;5043333;28;21306;-87
2021/03/29 04:32:47;;;;;;;5.90;4.40;;;4.60;99.90;;;;;;5040490;28;20630;-87
2021/03/29 04:35:16;;;;;;;5.93;4.90;;;4.70;99.90;;;;;;5047075;28;20633;-87
2021/03/29 04:37:44;;;;;;;6.50;4.80;;;4.70;99.90;;;;;;5040714;28;21399;-88
2021/03/29 04:40:12;;;;;;;8.53;4.97;;;4.80;99.90;;;;;;5043302;28;20649;-88
2021/03/29 04:42:40;;;;;;;6.20;4.80;;;4.80;99.90;;;;;;5045469;28;20687;-89
2021/03/29 04:45:07;;;;;;;7.00;4.33;;;4.80;99.90;;;;;;5052391;28;20659;-87
2021/03/29 04:47:35;;;;;;;6.30;4.37;;;4.90;99.90;;;;;;5047290;28;20636;-87
2021/03/29 04:50:01;;;;;;;6.13;4.20;;;4.90;99.90;;;;;;5043767;28;20678;-88
2021/03/29 04:52:28;;;;;;;8.93;4.77;;;5.00;99.90;;;;;;5044416;28;20695;-88
2021/03/29 04:54:55;;;;;;;5.80;4.80;;;5.10;99.90;;;;;;5043996;28;20649;-88
2021/03/29 04:57:22;;;;;;;7.17;5.40;;;5.10;99.90;;;;;;5046331;28;20630;-88
2021/03/29 04:59:49;;;;;;;8.10;4.83;;;5.20;99.90;;;;;;5034317;28;20688;-86
2021/03/29 05:02:15;;;;;;;7.37;4.90;;;5.30;99.90;;;;;;5031050;28;20621;-87
2021/03/29 05:04:42;;;;;;;6.27;4.80;;;5.30;99.90;;;;;;5037189;28;20640;-88
2021/03/29 05:07:10;;;;;;;6.03;5.43;;;5.40;99.90;;;;;;5043813;28;20854;-88
2021/03/29 05:09:37;;;;;;;7.33;5.07;;;5.40;99.90;;;;;;5033074;28;20769;-87
2021/03/29 05:12:10;;;;;;;6.63;4.23;;;5.30;99.90;;;;;;5036062;28;20721;-88
2021/03/29 05:14:37;;;;;;;9.93;5.13;;;5.20;99.90;;;;;;5048860;28;20641;-88
2021/03/29 05:17:05;;;;;;;9.40;6.73;;;5.30;99.90;;;;;;5037247;28;20593;-89
2021/03/29 05:19:31;;;;;;;9.13;6.10;;;5.30;99.90;;;;;;5043354;28;20779;-87
2021/03/29 05:21:59;;;;;;;12.47;7.60;;;5.40;99.90;;;;;;5027273;28;20630;-88
2021/03/29 05:24:26;;;;;;;10.40;7.97;;;5.40;99.90;;;;;;5043385;28;20634;-87
2021/03/29 05:26:52;;;;;;;12.40;8.07;;;5.50;99.90;;;;;;5046087;28;20610;-88
2021/03/29 05:29:20;;;;;;;10.60;7.10;;;5.60;99.90;;;;;;5040337;28;20674;-88
2021/03/29 05:31:47;;;;;;;9.77;7.40;;;5.80;99.90;;;;;;5045389;28;21324;-88
2021/03/29 05:34:15;;;;;;;11.33;8.60;;;5.80;99.90;;;;;;5040847;28;20646;-89
2021/03/29 05:36:43;;;;;;;10.80;8.00;;;5.90;99.90;;;;;;5042650;28;20928;-88
2021/03/29 05:39:10;;;;;;;10.30;7.67;;;5.90;99.90;;;;;;5042616;28;20630;-88
2021/03/29 05:41:38;;;;;;;14.03;7.40;;;5.90;99.90;;;;;;5045998;28;20630;-88
2021/03/29 05:44:06;;;;;;;10.30;7.90;;;6.00;99.90;;;;;;5043157;28;20634;-88
2021/03/29 05:46:33;;;;;;;11.13;7.73;;;6.00;99.90;;;;;;5041745;28;21225;-88
2021/03/29 05:49:01;;;;;;;7.70;6.73;;;6.20;99.90;;;;;;5046995;28;20630;-87
2021/03/29 05:51:28;;;;;;;14.17;6.47;;;6.30;99.90;;;;;;5044862;28;20641;-88
2021/03/29 05:53:55;;;;;;;10.47;5.80;;;6.30;99.90;;;;;;5043804;28;20622;-88
2021/03/29 05:56:21;;;;;;;9.23;5.73;;;6.30;99.90;;;;;;5048060;28;20709;-87
2021/03/29 05:59:03;;;;;;;8.13;6.00;;;6.40;99.90;;;;;;5042773;28;20721;-88
2021/03/29 06:01:40;;;;;;;7.80;5.27;;;6.50;99.90;;;;;;5045970;28;20649;-88
2021/03/29 06:04:08;;;;;;;10.00;6.47;;;6.60;99.90;;;;;;5037882;28;21181;-87
2021/03/29 06:06:35;;;;;;;7.47;5.30;;;6.70;99.90;;;;;;5045402;28;20625;-88
2021/03/29 06:09:03;;;;;;;9.03;6.00;;;6.70;99.90;;;;;;5053865;28;20653;-88
2021/03/29 06:11:33;;;;;;;8.20;5.47;;;6.60;99.90;;;;;;5065590;28;20650;-88
2021/03/29 06:14:14;;;;;;;5.90;5.30;;;6.50;99.90;;;;;;5060936;28;20622;-88
2021/03/29 06:16:57;;;;;;;6.27;4.87;;;6.60;99.90;;;;;;5044421;28;20644;-88
2021/03/29 06:19:35;;;;;;;7.20;5.60;;;6.60;99.90;;;;;;5045798;28;20684;-88
2021/03/29 06:22:12;;;;;;;7.03;5.53;;;6.60;99.90;;;;;;5042972;28;20621;-87
2021/03/29 06:25:08;;;;;;;6.00;5.20;;;6.60;99.90;;;;;;5039663;28;20624;-89
2021/03/29 06:27:40;;;;;;;8.33;5.30;;;6.60;99.90;;;;;;5046699;28;20626;-87
2021/03/29 06:30:25;;;;;;;9.60;5.63;;;6.60;99.90;;;;;;5053896;28;20677;-88
2021/03/29 06:33:14;;;;;;;5.30;4.80;;;6.70;99.90;;;;;;5044601;28;20649;-88
2021/03/29 06:35:42;;;;;;;13.90;5.40;;;6.90;99.90;;;;;;5040854;28;20653;-88
2021/03/29 06:38:11;;;;;;;14.20;5.00;;;6.90;99.90;;;;;;5044487;28;20645;-89
2021/03/29 06:40:40;;;;;;;10.37;5.13;;;6.90;99.90;;;;;;5042175;28;20665;-90
2021/03/29 06:43:17;;;;;;;5.30;4.67;;;7.10;99.90;;;;;;5049196;28;21131;-89
2021/03/29 06:45:44;;;;;;;9.00;4.87;;;7.20;99.90;;;;;;5042713;28;21172;-87
2021/03/29 07:09:24;;;;;;;6.87;4.33;;;7.80;99.90;;;;;;4841613;29;20621;-89
2021/03/29 07:25:53;;;;;;;5.80;4.83;;;9.10;99.90;;;;;;4935483;29;20700;-89
2021/03/29 08:12:03;;;;;;;6.50;3.90;;;12.10;92.90;;;;;;4785569;29;20776;-89
2021/03/29 08:14:31;;;;;;;4.30;3.90;;;12.40;92.40;;;;;;4924252;28;20642;-91
2021/03/29 08:16:57;;;;;;;5.20;4.80;;;12.50;91.70;;;;;;4987313;28;20620;-90
2021/03/29 08:19:25;;;;;;;5.30;3.73;;;12.70;91.50;;;;;;5008659;28;20647;-90
2021/03/29 08:21:58;;;;;;;10.13;3.70;;;12.80;91.20;;;;;;5007761;28;20663;-90
2021/03/29 08:24:27;;;;;;;6.40;3.30;;;13.10;90.40;;;;;;5009548;28;20628;-89
2021/03/29 08:26:56;;;;;;;3.93;3.40;;;13.30;88.40;;;;;;5012226;28;21181;-89
2021/03/29 08:29:29;;;;;;;6.67;3.13;;;13.50;87.30;;;;;;5026641;28;20659;-89
2021/03/29 08:32:16;;;;;;;5.93;3.77;;;13.70;86.30;;;;;;5032403;28;20647;-89
2021/03/29 08:34:58;;;;;;;4.80;3.80;;;13.60;85.50;;;;;;5012778;28;20623;-89
2021/03/29 08:37:31;;;;;;;7.10;4.33;;;13.70;86.50;;;;;;5006688;28;21170;-90
2021/03/29 08:39:59;;;;;;;5.40;4.23;;;13.60;86.20;;;;;;5006472;28;21062;-90
2021/03/29 08:42:29;;;;;;;6.23;3.67;;;13.40;86.80;;;;;;5007488;28;21071;-89
2021/03/29 08:44:56;;;;;;;4.83;4.03;;;13.60;86.60;;;;;;5010252;28;21631;-90
2021/03/29 08:47:24;;;;;;;4.60;3.50;;;13.50;87.60;;;;;;5013170;28;21064;-90
2021/03/29 08:49:53;;;;;;;6.03;4.23;;;13.60;87.10;;;;;;5009792;28;20671;-89
2021/03/29 08:52:20;;;;;;;6.33;4.47;;;13.90;86.20;;;;;;5007381;28;20673;-90
2021/03/29 08:54:52;;;;;;;6.27;3.97;;;14.00;86.30;;;;;;5006884;28;21234;-90
2021/03/29 08:57:23;;;;;;;8.93;3.50;;;14.10;85.80;;;;;;5006627;28;20709;-89
2021/03/29 08:59:52;;;;;;;5.27;3.63;;;14.20;84.10;;;;;;5007446;28;20635;-90
2021/03/29 09:02:20;;;;;;;5.93;3.67;;;14.50;84.90;;;;;;5006550;28;20643;-89
2021/03/29 09:04:55;;;;;;;5.23;3.47;;;14.50;85.40;;;;;;5007439;28;20607;-89
2021/03/29 09:07:28;;;;;;;5.77;4.03;;;14.80;84.70;;;;;;5003702;28;20631;-91
2021/03/29 09:09:54;;;;;;;9.50;5.00;;;15.10;84.00;;;;;;5004969;28;20832;-90
2021/03/29 09:12:26;;;;;;;5.70;4.73;;;15.20;83.50;;;;;;5005190;28;20677;-90
2021/03/29 09:14:53;;;;;;;6.23;3.87;;;15.20;83.20;;;;;;5005349;28;20631;-89
2021/03/29 09:17:38;;;;;;;5.27;3.77;;;15.40;84.30;;;;;;5007603;28;20644;-91
2021/03/29 09:20:16;;;;;;;5.50;4.10;;;15.60;83.50;;;;;;5001502;28;20611;-90
2021/03/29 09:22:42;;;;;;;5.63;4.20;;;15.80;83.00;;;;;;5011852;28;20639;-91
2021/03/29 09:25:10;;;;;;;13.60;3.50;;;15.70;81.60;;;;;;5013539;28;20674;-91
2021/03/29 09:27:40;;;;;;;11.90;3.53;;;15.80;81.40;;;;;;5029458;28;20636;-91
2021/03/29 09:30:11;;;;;;;5.13;3.80;;;15.90;80.00;;;;;;5017413;28;20660;-90
2021/03/29 09:32:41;;;;;;;5.10;3.83;;;15.70;80.70;;;;;;5007768;28;20669;-90
2021/03/29 09:35:11;;;;;;;5.40;3.43;;;15.80;83.00;;;;;;5002729;28;20658;-90
2021/03/29 09:37:46;;;;;;;5.33;3.10;;;15.90;81.10;;;;;;5003459;28;20597;-90
2021/03/29 09:40:17;;;;;;;5.90;3.03;;;16.20;80.00;;;;;;5005569;28;20622;-90
2021/03/29 09:42:45;;;;;;;10.30;3.57;;;16.10;79.60;;;;;;5002025;28;20839;-89
2021/03/29 09:45:14;;;;;;;5.23;3.70;;;16.20;79.30;;;;;;5008325;28;20630;-91
2021/03/29 09:47:41;;;;;;;5.37;2.83;;;16.50;78.30;;;;;;5010397;28;20627;-89
2021/03/29 09:50:10;;;;;;;26.57;5.37;;;16.60;76.80;;;;;;5009135;28;20698;-92
2021/03/29 09:52:41;;;;;;;6.40;3.13;;;17.00;77.80;;;;;;5007092;28;20668;-90
2021/03/29 09:55:09;;;;;;;6.43;3.50;;;17.10;75.60;;;;;;5004675;28;20632;-90
2021/03/29 09:57:42;;;;;;;7.33;2.97;;;17.20;74.50;;;;;;5006416;28;20639;-91
2021/03/29 10:00:17;;;;;;;5.50;3.20;;;17.50;73.30;;;;;;5009786;28;20727;-91
2021/03/29 10:02:45;;;;;;;4.30;2.83;;;17.50;73.20;;;;;;5006972;28;20698;-91
2021/03/29 10:05:14;;;;;;;5.70;2.80;;;17.80;72.90;;;;;;5003508;28;20634;-91
2021/03/29 10:07:52;;;;;;;3.83;3.00;;;17.90;70.40;;;;;;5010715;28;20623;-92
2021/03/29 10:10:30;;;;;;;5.63;2.23;;;18.00;70.00;;;;;;5016295;28;20671;-91
2021/03/29 10:13:08;;;;;;;5.87;2.03;;;18.10;68.60;;;;;;5004072;28;20734;-90
2021/03/29 10:15:36;;;;;;;5.43;2.27;;;18.20;66.80;;;;;;5004788;28;21521;-90
2021/03/29 10:18:10;;;;;;;2.83;1.67;;;18.60;64.80;;;;;;5005234;28;20630;-91
2021/03/29 10:20:39;;;;;;;3.80;1.87;;;18.50;63.30;;;;;;5005288;28;21228;-91
2021/03/29 10:23:26;;;;;;;5.30;2.17;;;19.00;62.80;;;;;;5005264;28;20640;-91
2021/03/29 10:26:16;;;;;;;7.77;2.10;;;19.20;61.30;;;;;;5005990;28;21004;-91
2021/03/29 10:28:54;;;;;;;5.07;2.23;;;19.00;60.80;;;;;;5007731;28;21013;-91
2021/03/29 10:31:23;;;;;;;5.10;2.20;;;19.10;58.40;;;;;;5006898;28;20671;-92
2021/03/29 10:33:50;;;;;;;4.03;2.13;;;19.40;57.90;;;;;;5007464;28;20737;-91
2021/03/29 10:36:18;;;;;;;4.33;1.93;;;19.50;58.10;;;;;;5004665;28;20689;-91
2021/03/29 10:38:45;;;;;;;4.83;1.73;;;19.30;57.10;;;;;;5006215;28;20644;-91
2021/03/29 10:41:12;;;;;;;4.47;2.30;;;19.50;57.60;;;;;;5002213;28;20639;-91
2021/03/29 10:43:39;;;;;;;4.63;1.80;;;19.80;59.30;;;;;;5006845;28;21132;-92
2021/03/29 10:46:07;;;;;;;3.90;1.80;;;20.00;57.20;;;;;;5012676;28;20670;-92
2021/03/29 10:48:34;;;;;;;4.87;2.60;;;20.10;55.70;;;;;;5012151;28;20631;-92
2021/03/29 10:51:02;;;;;;;3.60;2.60;;;20.30;55.80;;;;;;5006087;28;20663;-92
2021/03/29 10:53:32;;;;;;;5.13;1.80;;;20.60;55.60;;;;;;5003764;28;20655;-91
2021/03/29 10:55:59;;;;;;;6.20;2.67;;;20.80;54.00;;;;;;5010259;28;21023;-91
2021/03/29 10:58:25;;;;;;;5.90;1.83;;;20.70;54.70;;;;;;5008115;28;20620;-91
2021/03/29 11:00:51;;;;;;;4.43;2.40;;;20.50;53.50;;;;;;5007078;28;21012;-91
2021/03/29 11:03:20;;;;;;;3.03;1.73;;;20.60;52.80;;;;;;5008868;28;20651;-91
2021/03/29 11:05:46;;;;;;;5.30;1.50;;;20.90;52.20;;;;;;5008144;28;20642;-91
2021/03/29 11:08:13;;;;;;;3.90;2.03;;;20.90;51.80;;;;;;5009855;28;20635;-91
2021/03/29 11:10:40;;;;;;;4.10;2.03;;;20.90;51.20;;;;;;5009630;28;20718;-90
2021/03/29 11:13:07;;;;;;;2.80;1.60;;;21.40;52.00;;;;;;5024331;28;20785;-90
2021/03/29 11:15:34;;;;;;;3.20;1.63;;;21.50;51.20;;;;;;5021441;28;20631;-91
2021/03/29 11:18:01;;;;;;;4.57;2.20;;;21.70;50.60;;;;;;5006184;28;21052;-91
2021/03/29 11:20:28;;;;;;;3.03;1.30;;;21.90;51.00;;;;;;5012962;28;20741;-91
2021/03/29 11:22:55;;;;;;;6.03;1.93;;;22.00;49.70;;;;;;5006383;28;20656;-90
2021/03/29 11:25:25;;;;;;;6.03;2.23;;;22.40;49.10;;;;;;5011905;28;21134;-90
2021/03/29 11:27:51;;;;;;;6.20;1.87;;;22.50;48.10;;;;;;5008743;28;20726;-90
2021/03/29 11:30:20;;;;;;;2.87;1.83;;;22.70;48.20;;;;;;5008418;28;20671;-90
2021/03/29 11:32:47;;;;;;;2.43;1.57;;;22.40;47.00;;;;;;5010819;28;20657;-90
2021/03/29 11:35:13;;;;;;;1.73;1.30;;;22.70;47.30;;;;;;5009825;28;20619;-90
2021/03/29 11:37:40;;;;;;;8.20;2.10;;;22.80;47.00;;;;;;5017085;28;20711;-90
2021/03/29 11:40:10;;;;;;;2.47;1.70;;;22.90;45.40;;;;;;5035125;28;20702;-90
2021/03/29 11:42:40;;;;;;;3.37;1.83;;;22.90;45.70;;;;;;5028123;28;20667;-90
2021/03/29 11:45:09;;;;;;;4.30;1.90;;;22.90;45.00;;;;;;5015064;28;20623;-91
2021/03/29 11:47:35;;;;;;;2.83;1.67;;;22.90;44.50;;;;;;5011001;28;20699;-91
2021/03/29 11:50:02;;;;;;;3.23;2.00;;;23.10;44.40;;;;;;5011108;28;20684;-91
2021/03/29 11:52:28;;;;;;;5.60;2.07;;;23.50;44.00;;;;;;5013124;28;20670;-91
2021/03/29 11:54:54;;;;;;;2.90;1.60;;;23.80;43.90;;;;;;5017994;28;20639;-91
2021/03/29 11:57:23;;;;;;;2.93;1.90;;;23.70;42.80;;;;;;5012067;28;20697;-91
2021/03/29 11:59:53;;;;;;;6.03;2.27;;;24.00;43.50;;;;;;5007488;28;21234;-91
2021/03/29 12:02:22;;;;;;;3.17;2.20;;;24.30;43.70;;;;;;5005760;28;20772;-91
2021/03/29 12:04:57;;;;;;;5.43;2.03;;;24.30;42.80;;;;;;5008991;28;20631;-91
2021/03/29 12:07:31;;;;;;;5.13;1.90;;;23.80;42.60;;;;;;5009741;28;20837;-91
2021/03/29 12:12:40;;;;;;;3.27;1.97;;;25.30;41.30;;;;;;5005263;28;20643;-90
2021/03/29 12:15:11;;;;;;;2.40;1.77;;;24.90;40.20;;;;;;5006215;28;20793;-90
2021/03/29 12:17:39;;;;;;;3.63;2.47;;;24.80;41.20;;;;;;5004148;28;20632;-91
2021/03/29 12:20:07;;;;;;;4.60;2.00;;;24.80;40.80;;;;;;5010975;28;20669;-91
2021/03/29 12:22:34;;;;;;;6.27;1.80;;;25.50;41.10;;;;;;5013221;28;20649;-91
2021/03/29 12:25:02;;;;;;;2.97;2.27;;;24.90;41.80;;;;;;5007131;28;20624;-91
2021/03/29 12:27:30;;;;;;;5.07;2.00;;;25.50;40.70;;;;;;5004851;28;20667;-91
2021/03/29 12:29:56;;;;;;;5.07;2.13;;;25.60;39.20;;;;;;5015159;28;20746;-91
2021/03/29 12:32:24;;;;;;;4.90;2.00;;;26.00;38.30;;;;;;5008063;28;20648;-91
2021/03/29 12:34:54;;;;;;;6.07;2.20;;;25.80;38.10;;;;;;5010732;28;20646;-92
2021/03/29 12:37:23;;;;;;;3.37;2.17;;;25.80;37.30;;;;;;5013530;28;20635;-91
2021/03/29 12:39:54;;;;;;;3.13;2.37;;;25.60;38.90;;;;;;5010978;28;20635;-91
2021/03/29 12:42:23;;;;;;;5.27;2.20;;;26.20;37.80;;;;;;5004388;28;20710;-91
2021/03/29 12:44:51;;;;;;;5.00;1.90;;;26.60;37.10;;;;;;5003555;28;20632;-92
2021/03/29 12:47:19;;;;;;;2.53;1.50;;;26.90;36.40;;;;;;5005529;28;20627;-91
2021/03/29 12:49:46;;;;;;;2.37;2.17;;;27.10;35.90;;;;;;5003707;28;20623;-92
2021/03/29 12:52:15;;;;;;;4.47;2.37;;;26.80;34.90;;;;;;5011014;28;20728;-91
2021/03/29 12:54:44;;;;;;;3.67;2.10;;;26.20;35.00;;;;;;5003380;28;20616;-91
2021/03/29 12:57:11;;;;;;;2.30;1.80;;;26.60;35.70;;;;;;5003448;28;20628;-91
2021/03/29 12:59:38;;;;;;;3.27;1.73;;;26.50;35.80;;;;;;5008385;28;20667;-91
2021/03/29 13:02:04;;;;;;;4.13;2.30;;;26.80;34.80;;;;;;5005734;28;20740;-92
2021/03/29 13:04:33;;;;;;;3.10;2.03;;;26.40;34.10;;;;;;5005702;28;20994;-92
2021/03/29 13:07:21;;;;;;;4.00;2.20;;;27.10;33.80;;;;;;5005212;28;20632;-92
2021/03/29 13:09:54;;;;;;;2.97;1.67;;;27.00;33.70;;;;;;5007421;28;20718;-92
2021/03/29 13:12:23;;;;;;;6.30;2.00;;;26.50;33.20;;;;;;5009059;28;20651;-92
2021/03/29 13:15:02;;;;;;;2.53;1.90;;;27.40;34.10;;;;;;5010905;28;20668;-90
2021/03/29 13:17:29;;;;;;;3.67;2.23;;;27.50;33.00;;;;;;5009976;28;20626;-93
2021/03/29 13:19:55;;;;;;;4.33;2.00;;;27.50;33.50;;;;;;5007493;28;20632;-91
2021/03/29 13:22:24;;;;;;;3.67;2.10;;;27.80;32.30;;;;;;5011134;28;20693;-90
2021/03/29 13:24:50;;;;;;;3.50;2.03;;;27.90;32.80;;;;;;5007214;28;20627;-91
2021/03/29 13:27:18;;;;;;;2.57;1.87;;;27.90;32.10;;;;;;5008683;28;20631;-93
2021/03/29 13:32:32;;;;;;;7.57;2.33;;;27.90;32.30;;;;;;5008854;28;21239;-91
2021/03/29 13:34:59;;;;;;;7.60;2.70;;;27.90;33.10;;;;;;5007112;28;20747;-92
2021/03/29 13:37:29;;;;;;;6.20;2.63;;;27.90;33.60;;;;;;5007547;28;20736;-91
2021/03/29 13:39:57;;;;;;;16.77;4.27;;;28.10;33.90;;;;;;5012015;28;20701;-92
2021/03/29 13:42:24;;;;;;;8.90;3.33;;;28.30;32.50;;;;;;5008534;28;20675;-91
2021/03/29 13:44:52;;;;;;;5.80;2.80;;;28.40;32.00;;;;;;5010998;28;20983;-91
2021/03/29 13:47:21;;;;;;;2.43;2.13;;;28.40;32.70;;;;;;5015242;28;21257;-92
2021/03/29 13:49:48;;;;;;;3.67;2.50;;;28.30;31.40;;;;;;5014021;28;20720;-92
2021/03/29 13:52:16;;;;;;;3.50;2.73;;;27.90;32.00;;;;;;5006445;28;20684;-91
2021/03/29 13:54:45;;;;;;;2.33;1.87;;;27.00;31.50;;;;;;5013674;28;20623;-91
2021/03/29 13:57:12;;;;;;;2.70;1.80;;;26.90;32.20;;;;;;5015921;28;21190;-92
2021/03/29 13:59:42;;;;;;;4.40;2.30;;;27.00;31.40;;;;;;5009077;28;20619;-91
2021/03/29 14:02:10;;;;;;;3.90;2.53;;;27.80;31.80;;;;;;5013644;28;20682;-91
2021/03/29 14:04:42;;;;;;;4.53;2.33;;;28.70;31.00;;;;;;5015595;28;20660;-91
2021/03/29 14:07:15;;;;;;;4.23;2.60;;;28.30;30.70;;;;;;5018972;28;20641;-92
2021/03/29 14:09:46;;;;;;;3.30;2.30;;;28.40;30.50;;;;;;5018935;28;20714;-91
2021/03/29 14:12:14;;;;;;;2.77;2.20;;;28.70;30.60;;;;;;5023790;28;20655;-92
2021/03/29 14:14:41;;;;;;;4.63;2.13;;;29.00;30.60;;;;;;5025124;28;20696;-92
2021/03/29 14:17:09;;;;;;;2.90;2.00;;;28.90;30.50;;;;;;5030832;28;20634;-90
2021/03/29 14:19:39;;;;;;;6.03;2.60;;;28.90;30.50;;;;;;5032587;28;20667;-91
2021/03/29 14:22:08;;;;;;;3.40;2.37;;;28.60;29.80;;;;;;5029220;28;21001;-92
2021/03/29 14:25:08;;;;;;;4.60;2.47;;;28.70;30.70;;;;;;5035526;28;20622;-94